Monday, August 31, 2015, 6:45 AM EDT

KSEG, Selinsgrove Penn Valley Airport

Location: Selinsgrove, PA, United States Lat: 40.817
Local Time: 6:45 AM EDT (10:45 GMT) Lon: -76.867
Time Zone: US/Eastern Elev: 449 ft

Show me the last for .
Show Decoded

2015-08-31 06:25 METAR KSEG 311025Z AUTO 00000KT 2SM BR FEW002 18/17 A3007 RMK AO2 T01780172 =
2015-08-31 06:08 METAR KSEG 311008Z AUTO 00000KT 1 1/2SM BR CLR 18/17 A3007 RMK AO2 T01830172 =
2015-08-31 05:41 METAR KSEG 310941Z AUTO 00000KT 2SM BR CLR 18/17 A3006 RMK AO2 T01830172 =
2015-08-31 05:22 METAR KSEG 310922Z AUTO 00000KT 1 1/2SM BR CLR 18/17 A3006 RMK AO2 VIS 1/2V4
                 T01780172 =
2015-08-31 05:17 METAR KSEG 310917Z AUTO 00000KT 3SM BR CLR 18/17 A3006 RMK AO2 T01830172 =
2015-08-31 05:07 METAR KSEG 310907Z AUTO 00000KT 2 1/2SM BR CLR 18/17 A3006 RMK AO2 T01830172 =
2015-08-31 04:53 METAR KSEG 310853Z AUTO 00000KT 1 3/4SM BR CLR 18/17 A3006 RMK AO2 SLP177
                 T01830172 53003 =
2015-08-31 04:37 METAR KSEG 310837Z AUTO 00000KT 2 1/2SM BR CLR 18/17 A3006 RMK AO2 T01830172 =
2015-08-31 04:19 METAR KSEG 310819Z AUTO 00000KT 1 1/4SM BR SCT003 18/17 A3006 RMK AO2 T01830172
                 =
2015-08-31 04:00 METAR KSEG 310800Z AUTO 00000KT 1/4SM FG VV003 18/17 A3006 RMK AO2 T01830172 =
2015-08-31 03:53 METAR KSEG 310753Z AUTO 00000KT 1SM BR SCT002 BKN120 18/18 A3006 RMK AO2 SLP174
                 T01830178 =
2015-08-31 03:49 METAR KSEG 310749Z AUTO 00000KT 1 1/4SM BR SCT002 SCT120 18/18 A3005 RMK AO2 =
2015-08-31 03:38 METAR KSEG 310738Z AUTO 00000KT 3/4SM BR SCT003 SCT120 19/18 A3006 RMK AO2
                 T01890178 =
2015-08-31 03:32 METAR KSEG 310732Z AUTO 00000KT 1 1/4SM BR FEW003 SCT120 19/18 A3005 RMK AO2
                 T01890178 =
2015-08-31 03:25 METAR KSEG 310725Z AUTO 00000KT 3/4SM BR FEW003 SCT120 19/18 A3005 RMK AO2
                 T01890178 =
2015-08-31 03:21 METAR KSEG 310721Z AUTO 00000KT 1SM BR VV002 19/18 A3006 RMK AO2 T01890183 =
2015-08-31 03:09 METAR KSEG 310709Z AUTO 00000KT 1 3/4SM BR CLR 19/18 A3006 RMK AO2 T01890183 =
2015-08-31 02:53 METAR KSEG 310653Z AUTO 00000KT 2SM BR CLR 19/18 A3006 RMK AO2 VIS 1V4 SLP174
                 T01890183 =
2015-08-31 02:50 METAR KSEG 310650Z AUTO 00000KT 2SM BR CLR 19/18 A3006 RMK AO2 VIS 1V4 =
2015-08-31 02:39 METAR KSEG 310639Z AUTO 00000KT 3SM BR FEW100 19/18 A3006 RMK AO2 T01940183 =
2015-08-31 02:30 METAR KSEG 310630Z AUTO 00000KT 2 1/2SM BR FEW050 SCT100 19/19 A3006 RMK AO2
                 T01940189 =
2015-08-31 00:53 METAR KSEG 310453Z AUTO 16003KT 3SM BR BKN055 BKN090 20/19 A3007 RMK AO2 SLP180
                 T02000194 402940139 =
2015-08-30 23:53 METAR KSEG 310353Z AUTO 00000KT 3SM BR BKN080 20/19 A3007 RMK AO2 SLP179
                 T02000189 =
2015-08-30 22:53 METAR KSEG 310253Z AUTO 00000KT 5SM BR FEW065 21/19 A3007 RMK AO2 SLP179
                 T02060194 51011 =
2015-08-30 21:53 METAR KSEG 310153Z AUTO 00000KT 5SM BR CLR 21/20 A3007 RMK AO2 SLP178 T02110200
                 =
2015-08-30 20:53 METAR KSEG 310053Z AUTO 00000KT 6SM BR SCT065 21/20 A3005 RMK AO2 LTG DSNT NE
                 SLP174 T02110200 =
2015-08-30 19:53 METAR KSEG 302353Z AUTO 00000KT 9SM CLR 24/21 A3004 RMK AO2 SLP169 T02390206
                 10294 20233 55000 =
2015-08-30 17:53 METAR KSEG 302153Z AUTO VRB03KT 9SM CLR 27/22 A3003 RMK AO2 SLP167 T02720217 =
2015-08-30 16:53 METAR KSEG 302053Z AUTO 16005KT 9SM CLR 28/22 A3004 RMK AO2 SLP169 T02830217
                 56013 =
2015-08-30 15:53 METAR KSEG 301953Z AUTO 00000KT 10SM FEW100 28/20 A3005 RMK AO2 SLP172 T02830200
                 =
2015-08-30 14:53 METAR KSEG 301853Z AUTO 00000KT 10SM FEW048 SCT070 OVC100 27/20 A3007 RMK AO2
                 SLP179 T02670200 =
2015-08-30 13:53 METAR KSEG 301753Z AUTO 00000KT 10SM FEW039 SCT090 BKN120 28/19 A3008 RMK AO2
                 SLP182 T02780194 10283 20167 58015 =
2015-08-30 12:53 METAR KSEG 301653Z AUTO 00000KT 10SM CLR 28/20 A3010 RMK AO2 SLP190 T02830200 =
2015-08-30 11:53 METAR KSEG 301553Z AUTO 00000KT 10SM FEW120 27/19 A3011 RMK AO2 SLP195 T02670194
                 =
2015-08-30 10:53 METAR KSEG 301453Z AUTO 08003KT 9SM CLR 24/19 A3012 RMK AO2 SLP197 T02440189
                 58002 =
2015-08-30 09:53 METAR KSEG 301353Z AUTO 00000KT 7SM CLR 22/18 A3013 RMK AO2 SLP199 T02220178 =
2015-08-30 08:53 METAR KSEG 301253Z AUTO 00000KT 5SM BR SCT110 19/17 A3013 RMK AO2 SLP200
                 T01940172 =
2015-08-30 07:12 METAR KSEG 301112Z AUTO 00000KT 2 1/2SM BR FEW004 15/14 A3011 RMK AO2 T01500144
                 =
2015-08-30 07:05 METAR KSEG 301105Z AUTO 00000KT 2SM BR BKN004 15/14 A3012 RMK AO2 T01500139 =
2015-08-30 06:53 METAR KSEG 301053Z AUTO 00000KT 2SM BR FEW004 SCT100 15/14 A3011 RMK AO2 SLP196
                 T01500139 =

Support USWX by starting your Amazon purchase here.